Downing, Missouri
Current Conditions -  °F | °C
As of 6:20 PM on Wednesday 26 Nov 2014 (Local Time) from KIRK Reporting Station
Light Snow Light Snow  
Wind Chill: 24°   Ceiling: 600
Heat Index: 32°   Visibility: 1.7mi
Dew Point: 31°   Wind: 9mph
Humidity: 96%   Direction: 350°N
Pressure: 30.1"   Gusts: NA
Location:  40.49°N, 92.37°W
Report Text: KIRK 270020Z AUTO 35008KT 1 3/4SM -SN BR OVC006 00/M01 A3010 RMK AO2 P0000 T00001006
Loading
Personal Weather Stations






























Interactive Weather Map New forecast layout! Learn more

10-Day Weather Forecast

Advertisements
Track Severe Weather on mobile